Time;durP1;ratioP1;P1;durP2;ratioP2;P2;SDS_P1;SDS_P2;PMS_P1;PMS_P2;Temp;Humidity;BMP_temperature;BMP_pressure;BME280_temperature;BME280_humidity;BME280_pressure;Samples;Min_cycle;Max_cycle;Signal;HPM_P1;HPM_P2
2022/01/10 00:00:07;;;;;;;;;;;1.00;99.90;;;;;;4984105;28;20582;-76
2022/01/10 00:02:33;;;;;;;;;;;1.10;99.90;;;;;;4980338;28;19930;-76
2022/01/10 00:05:00;;;;;;;;;;;1.10;99.90;;;;;;4984517;28;19936;-77
2022/01/10 00:07:26;;;;;;;;;;;1.10;99.90;;;;;;4979151;28;19965;-77
2022/01/10 00:09:54;;;;;;;;;;;1.30;99.90;;;;;;4986852;28;19926;-77
2022/01/10 00:12:21;;;;;;;;;;;1.00;99.90;;;;;;4986567;28;19926;-78
2022/01/10 00:14:48;;;;;;;;;;;1.10;99.90;;;;;;4986006;28;20016;-77
2022/01/10 00:17:14;;;;;;;;;;;1.00;99.90;;;;;;4984418;28;19933;-76
2022/01/10 00:19:41;;;;;;;;;;;1.00;99.90;;;;;;4988356;28;19926;-76
2022/01/10 00:22:08;;;;;;;;;;;1.00;99.90;;;;;;4985995;28;19930;-76
2022/01/10 00:24:35;;;;;;;;;;;1.00;99.90;;;;;;4984099;28;19969;-76
2022/01/10 00:27:04;;;;;;;;;;;1.00;99.90;;;;;;4987859;28;19933;-76
2022/01/10 00:29:30;;;;;;;;;;;1.00;99.90;;;;;;4989178;28;19926;-75
2022/01/10 00:31:57;;;;;;;;;;;1.00;99.90;;;;;;4982681;28;20060;-76
2022/01/10 00:34:24;;;;;;;;;;;1.00;99.90;;;;;;4991742;28;19949;-76
2022/01/10 00:36:51;;;;;;;;;;;1.00;99.90;;;;;;4987669;28;20415;-76
2022/01/10 00:39:17;;;;;;;;;;;0.90;99.90;;;;;;4985232;28;20973;-76
2022/01/10 00:41:45;;;;;;;;;;;1.00;99.90;;;;;;4986243;28;19926;-77
2022/01/10 00:44:14;;;;;;;;;;;1.00;99.90;;;;;;4984735;28;19925;-76
2022/01/10 00:46:40;;;;;;;;;;;0.90;99.90;;;;;;4987341;28;19955;-76
2022/01/10 00:49:07;;;;;;;;;;;0.90;99.90;;;;;;4982880;28;20303;-77
2022/01/10 00:51:34;;;;;;;;;;;1.00;99.90;;;;;;4977187;28;19934;-76
2022/01/10 00:54:01;;;;;;;;;;;0.90;99.90;;;;;;4985850;28;19925;-77
2022/01/10 00:56:28;;;;;;;;;;;0.90;99.90;;;;;;4983173;28;20002;-76
2022/01/10 00:58:54;;;;;;;;;;;0.90;99.90;;;;;;4988224;28;20556;-77
2022/01/10 01:01:22;;;;;;;;;;;1.00;99.90;;;;;;4983338;28;19926;-76
2022/01/10 01:03:49;;;;;;;;;;;1.10;99.90;;;;;;4988597;28;19932;-76
2022/01/10 01:06:16;;;;;;;;;;;1.00;99.90;;;;;;4985344;28;20013;-76
2022/01/10 01:08:44;;;;;;;;;;;1.00;99.90;;;;;;4985423;28;20336;-76
2022/01/10 01:13:54;;;;;;;;;;;0.90;99.90;;;;;;4986282;28;19926;-76
2022/01/10 01:16:42;;;;;;;;;;;0.90;99.90;;;;;;4991432;28;20371;-76
2022/01/10 01:20:02;;;;;;;;;;;0.80;99.90;;;;;;4989386;28;20020;-76
2022/01/10 01:24:57;;;;;;;;;;;0.80;99.90;;;;;;4978269;28;19933;-76
2022/01/10 01:27:24;;;;;;;;;;;0.70;99.90;;;;;;4984776;28;19956;-76
2022/01/10 01:29:53;;;;;;;;;;;0.70;99.90;;;;;;4990392;28;19965;-76
2022/01/10 01:32:21;;;;;;;;;;;0.60;99.90;;;;;;4983978;28;20024;-76
2022/01/10 01:34:48;;;;;;;;;;;0.50;99.90;;;;;;4989428;28;19930;-76
2022/01/10 01:37:14;;;;;;;;;;;0.50;99.90;;;;;;4991461;28;19929;-76
2022/01/10 01:39:41;;;;;;;;;;;0.50;99.90;;;;;;4992472;28;19934;-76
2022/01/10 01:42:30;;;;;;;;;;;;;;;;;;4995478;28;19958;-76
2022/01/10 01:44:55;;;;;;;;;;;;;;;;;;4989635;28;19926;-76
2022/01/10 01:47:22;;;;;;;;;;;;;;;;;;4986039;28;19936;-78
2022/01/10 01:49:49;;;;;;;;;;;;;;;;;;4991412;28;19926;-77
2022/01/10 01:52:16;;;;;;;;;;;;;;;;;;4988883;28;20511;-77
2022/01/10 01:54:42;;;;;;;;;;;;;;;;;;4987583;28;20752;-78
2022/01/10 01:57:09;;;;;;;;;;;;;;;;;;4999110;28;20025;-78
2022/01/10 01:59:36;;;;;;;;;;;;;;;;;;4999100;28;19936;-77
2022/01/10 02:02:03;;;;;;;;;;;;;;;;;;4991836;28;19925;-77
2022/01/10 02:04:30;;;;;;;;;;;;;;;;;;4993178;28;19934;-78
2022/01/10 02:06:57;;;;;;;;;;;;;;;;;;4988305;28;19930;-78
2022/01/10 02:09:24;;;;;;;;;;;;;;;;;;4998006;28;19973;-78
2022/01/10 02:11:51;;;;;;;;;;;;;;;;;;4994898;28;19945;-77
2022/01/10 02:14:18;;;;;;;;;;;;;;;;;;4991385;28;19929;-76
2022/01/10 02:16:53;;;;;;;;;;;;;;;;;;4987266;28;19932;-76
2022/01/10 02:19:20;;;;;;;;;;;;;;;;;;4986746;28;20300;-77
2022/01/10 02:21:47;;;;;;;;;;;;;;;;;;4985831;28;19925;-76
2022/01/10 02:24:13;;;;;;;;;;;;;;;;;;4988927;28;19933;-76
2022/01/10 02:26:40;;;;;;;;;;;;;;;;;;4984744;28;20041;-76
2022/01/10 02:29:07;;;;;;;;;;;;;;;;;;4984005;28;19930;-76
2022/01/10 02:31:34;;;;;;;;;;;;;;;;;;4988059;28;20369;-76
2022/01/10 02:34:01;;;;;;;;;;;;;;;;;;4983549;28;19988;-76
2022/01/10 02:36:28;;;;;;;;;;;;;;;;;;4986828;28;19934;-76
2022/01/10 02:38:55;;;;;;;;;;;;;;;;;;4989012;28;19932;-77
2022/01/10 02:41:22;;;;;;;;;;;;;;;;;;4982299;28;19977;-77
2022/01/10 02:43:49;;;;;;;;;;;;;;;;;;4990004;28;19932;-77
2022/01/10 02:46:16;;;;;;;;;;;;;;;;;;4984649;28;19933;-76
2022/01/10 02:48:43;;;;;;;;;;;;;;;;;;4982410;28;19933;-77
2022/01/10 02:51:10;;;;;;;;;;;;;;;;;;4987577;28;19973;-77
2022/01/10 02:53:37;;;;;;;;;;;;;;;;;;4988148;28;19926;-77
2022/01/10 02:56:04;;;;;;;;;;;;;;;;;;4990983;28;19932;-77
2022/01/10 02:58:31;;;;;;;;;;;;;;;;;;4992704;28;19926;-77
2022/01/10 03:00:58;;;;;;;;;;;;;;;;;;4989260;28;19985;-76
2022/01/10 03:03:25;;;;;;;;;;;;;;;;;;4982215;28;19934;-76
2022/01/10 03:05:52;;;;;;;;;;;;;;;;;;4990774;28;19989;-77
2022/01/10 03:08:19;;;;;;;;;;;;;;;;;;4991195;28;20016;-76
2022/01/10 03:10:46;;;;;;;;;;;;;;;;;;4988405;28;20572;-76
2022/01/10 03:13:13;;;;;;;;;;;;;;;;;;4987554;28;19926;-77
2022/01/10 03:15:39;;;;;;;;;;;;;;;;;;4987909;28;20001;-76
2022/01/10 03:18:06;;;;;;;;;;;;;;;;;;4994614;28;19933;-77
2022/01/10 03:20:33;;;;;;;;;;;;;;;;;;4989441;28;19926;-76
2022/01/10 03:23:01;;;;;;;;;;;;;;;;;;4991019;28;19926;-77
2022/01/10 03:25:28;;;;;;;;;;;;;;;;;;4988271;28;19930;-76
2022/01/10 03:27:55;;;;;;;;;;;;;;;;;;4993285;28;19957;-77
2022/01/10 03:30:22;;;;;;;;;;;;;;;;;;4992133;28;19926;-77
2022/01/10 03:32:51;;;;;;;;;;;;;;;;;;4993087;28;19936;-76
2022/01/10 03:35:18;;;;;;;;;;;;;;;;;;4990661;28;19932;-76
2022/01/10 03:37:45;;;;;;;;;;;;;;;;;;4992557;28;19932;-77
2022/01/10 03:40:11;;;;;;;;;;;;;;;;;;4990206;28;20001;-76
2022/01/10 03:42:38;;;;;;;;;;;;;;;;;;4991620;28;19925;-76
2022/01/10 03:45:05;;;;;;;;;;;;;;;;;;4985425;28;19936;-76
2022/01/10 03:47:32;;;;;;;;;;;;;;;;;;4983506;28;19929;-76
2022/01/10 03:49:59;;;;;;;;;;;;;;;;;;4985265;28;19980;-76
2022/01/10 03:52:27;;;;;;;;;;;;;;;;;;4988659;28;19933;-76
2022/01/10 03:54:54;;;;;;;;;;;;;;;;;;4986292;28;20020;-77
2022/01/10 03:57:21;;;;;;;;;;;;;;;;;;4989740;28;19968;-76
2022/01/10 03:59:48;;;;;;;;;;;;;;;;;;4988181;28;20021;-77
2022/01/10 04:02:15;;;;;;;;;;;;;;;;;;4991989;28;19940;-77
2022/01/10 04:04:42;;;;;;;;;;;;;;;;;;4983559;28;20020;-77
2022/01/10 04:07:09;;;;;;;;;;;;;;;;;;4987100;28;19930;-77
2022/01/10 04:09:36;;;;;;;;;;;;;;;;;;4989591;28;19945;-77
2022/01/10 04:12:03;;;;;;;;;;;;;;;;;;4999949;28;20028;-77
2022/01/10 04:14:30;;;;;;;;;;;;;;;;;;4989328;28;19944;-77
2022/01/10 04:16:56;;;;;;;;;;;;;;;;;;4986290;28;19929;-76
2022/01/10 04:19:23;;;;;;;;;;;;;;;;;;4985908;28;19926;-77
2022/01/10 04:21:50;;;;;;;;;;;;;;;;;;4987987;28;20681;-78
2022/01/10 04:24:17;;;;;;;;;;;;;;;;;;4991422;28;19926;-77
2022/01/10 04:26:44;;;;;;;;;;;;;;;;;;4986660;28;19926;-76
2022/01/10 04:29:11;;;;;;;;;;;;;;;;;;4988619;28;19926;-77
2022/01/10 04:31:38;;;;;;;;;;;;;;;;;;4991266;28;19933;-77
2022/01/10 04:34:05;;;;;;;;;;;;;;;;;;4987753;28;19934;-77
2022/01/10 04:36:32;;;;;;;;;;;;;;;;;;4982774;28;20169;-77
2022/01/10 04:38:59;;;;;;;;;;;;;;;;;;4990912;28;20491;-77
2022/01/10 04:41:26;;;;;;;;;;;;;;;;;;4989457;28;19989;-77
2022/01/10 04:43:53;;;;;;;;;;;;;;;;;;4987479;28;22617;-77
2022/01/10 04:46:20;;;;;;;;;;;;;;;;;;4985669;28;19984;-77
2022/01/10 04:48:47;;;;;;;;;;;;;;;;;;4987466;28;19933;-77
2022/01/10 04:51:15;;;;;;;;;;;;;;;;;;4986970;28;20478;-77
2022/01/10 04:53:42;;;;;;;;;;;;;;;;;;4989577;28;19926;-77
2022/01/10 04:56:09;;;;;;;;;;;;;;;;;;4984611;28;20502;-77
2022/01/10 04:58:36;;;;;;;;;;;;;;;;;;4985113;28;19932;-77
2022/01/10 05:01:03;;;;;;;;;;;;;;;;;;4989334;28;19972;-77
2022/01/10 05:03:30;;;;;;;;;;;;;;;;;;4990536;28;19938;-77
2022/01/10 05:05:57;;;;;;;;;;;;;;;;;;4986928;28;19929;-77
2022/01/10 05:08:24;;;;;;;;;;;;;;;;;;5000602;28;20013;-77
2022/01/10 05:10:51;;;;;;;;;;;;;;;;;;4991914;28;20009;-78
2022/01/10 05:13:18;;;;;;;;;;;;;;;;;;4991371;28;20028;-78
2022/01/10 05:15:47;;;;;;;;;;;;;;;;;;4995813;28;19926;-77
2022/01/10 05:18:14;;;;;;;;;;;;;;;;;;4991122;28;19925;-77
2022/01/10 05:20:41;;;;;;;;;;;;;;;;;;4989858;28;19933;-78
2022/01/10 05:23:08;;;;;;;;;;;;;;;;;;4995370;28;20053;-77
2022/01/10 05:25:39;;;;;;;;;;;;;;;;;;4997795;28;19932;-77
2022/01/10 05:28:06;;;;;;;;;;;;;;;;;;4989834;28;20005;-77
2022/01/10 05:30:35;;;;;;;;;;;;;;;;;;4984478;28;20309;-77
2022/01/10 05:33:02;;;;;;;;;;;;;;;;;;4987083;28;19926;-78
2022/01/10 05:35:29;;;;;;;;;;;;;;;;;;4990529;28;19951;-77
2022/01/10 05:37:56;;;;;;;;;;;;;;;;;;4990754;28;20485;-77
2022/01/10 05:40:23;;;;;;;;;;;;;;;;;;4991730;28;20404;-76
2022/01/10 05:42:50;;;;;;;;;;;;;;;;;;4990669;28;20061;-76
2022/01/10 05:45:16;;;;;;;;;;;;;;;;;;4996386;28;19973;-77
2022/01/10 05:47:45;;;;;;;;;;;;;;;;;;4993977;28;19930;-77
2022/01/10 05:50:12;;;;;;;;;;;;;;;;;;4995339;28;19926;-76
2022/01/10 05:52:39;;;;;;;;;;;;;;;;;;4991368;28;20008;-77
2022/01/10 05:55:06;;;;;;;;;;;;;;;;;;4986516;28;19952;-75
2022/01/10 05:57:33;;;;;;;;;;;;;;;;;;4985520;28;20004;-76
2022/01/10 06:00:00;;;;;;;;;;;;;;;;;;4991370;28;19925;-76
2022/01/10 06:02:27;;;;;;;;;;;;;;;;;;4986836;28;20016;-76
2022/01/10 06:04:57;;;;;;;;;;;;;;;;;;4986697;28;20008;-75
2022/01/10 06:07:24;;;;;;;;;;;;;;;;;;4982688;28;19980;-75
2022/01/10 06:09:51;;;;;;;;;;;;;;;;;;4987499;28;20138;-76
2022/01/10 06:12:18;;;;;;;;;;;;;;;;;;4979974;28;20012;-76
2022/01/10 06:14:45;;;;;;;;;;;;;;;;;;4988663;28;20401;-75
2022/01/10 06:17:12;;;;;;;;;;;;;;;;;;4982802;28;19940;-76
2022/01/10 06:19:39;;;;;;;;;;;;;;;;;;4984649;28;19972;-76
2022/01/10 06:22:06;;;;;;;;;;;;;;;;;;4985345;28;19932;-73
2022/01/10 06:24:33;;;;;;;;;;;;;;;;;;4978571;28;20053;-74
2022/01/10 06:26:59;;;;;;;;;;;;;;;;;;4984644;28;20021;-73
2022/01/10 06:29:26;;;;;;;;;;;;;;;;;;4985472;28;20008;-74
2022/01/10 06:31:53;;;;;;;;;;;;;;;;;;4991053;28;20357;-77
2022/01/10 06:34:20;;;;;;;;;;;;;;;;;;4988012;28;20017;-75
2022/01/10 06:36:47;;;;;;;;;;;;;;;;;;4988274;28;19932;-74
2022/01/10 06:39:14;;;;;;;;;;;;;;;;;;4980109;28;20021;-75
2022/01/10 06:41:41;;;;;;;;;;;;;;;;;;4986260;28;20452;-75
2022/01/10 06:44:08;;;;;;;;;;;;;;;;;;4986703;28;19932;-74
2022/01/10 06:46:35;;;;;;;;;;;;;;;;;;4982410;28;19930;-75
2022/01/10 06:49:02;;;;;;;;;;;;;;;;;;4984392;28;22415;-74
2022/01/10 06:51:29;;;;;;;;;;;;;;;;;;4984609;28;19926;-75
2022/01/10 06:53:56;;;;;;;;;;;;;;;;;;4987786;28;20020;-74
2022/01/10 06:56:23;;;;;;;;;;;;;;;;;;4984422;28;20028;-73
2022/01/10 06:58:50;;;;;;;;;;;;;;;;;;4985179;28;19988;-74
2022/01/10 07:01:19;;;;;;;;;;;;;;;;;;4976382;28;19965;-74
2022/01/10 07:03:46;;;;;;;;;;;;;;;;;;4980234;28;20020;-75
2022/01/10 07:06:13;;;;;;;;;;;;;;;;;;4981166;28;20020;-74
2022/01/10 07:08:40;;;;;;;;;;;;;;;;;;4984759;28;19940;-74
2022/01/10 07:11:06;;;;;;;;;;;;;;;;;;4986045;28;19930;-75
2022/01/10 07:13:33;;;;;;;;;;;;;;;;;;4989712;28;19932;-74
2022/01/10 07:16:00;;;;;;;;;;;;;;;;;;4977394;28;20281;-74
2022/01/10 07:18:27;;;;;;;;;;;;;;;;;;4989276;28;19965;-74
2022/01/10 07:20:54;;;;;;;;;;;;;;;;;;4976672;28;19976;-74
2022/01/10 07:23:22;;;;;;;;;;;;;;;;;;4982325;28;19932;-74
2022/01/10 07:25:49;;;;;;;;;;;;;;;;;;4979270;28;19930;-74
2022/01/10 07:28:16;;;;;;;;;;;;;;;;;;4982705;28;19925;-74
2022/01/10 07:30:43;;;;;;;;;;;;;;;;;;4981759;28;19926;-75
2022/01/10 07:33:10;;;;;;;;;;;;;;;;;;4991813;28;19956;-75
2022/01/10 07:35:37;;;;;;;;;;;;;;;;;;4996089;28;19925;-75
2022/01/10 07:38:04;;;;;;;;;;;;;;;;;;4992070;28;20304;-75
2022/01/10 07:40:31;;;;;;;;;;;;;;;;;;4994610;28;19925;-75
2022/01/10 07:42:58;;;;;;;;;;;;;;;;;;4990840;28;19953;-75
2022/01/10 07:45:25;;;;;;;;;;;;;;;;;;4991480;28;20020;-75
2022/01/10 07:47:52;;;;;;;;;;;;;;;;;;4979004;28;19930;-75
2022/01/10 07:50:19;;;;;;;;;;;;;;;;;;4984816;28;19933;-75
2022/01/10 07:52:46;;;;;;;;;;;;;;;;;;4982705;28;19926;-75
2022/01/10 07:55:13;;;;;;;;;;;;;;;;;;4983403;28;20365;-75
2022/01/10 07:57:40;;;;;;;;;;;;;;;;;;4978133;28;19926;-75
2022/01/10 08:00:07;;;;;;;;;;;;;;;;;;4981367;28;20405;-75
2022/01/10 08:02:34;;;;;;;;;;;;;;;;;;4991603;28;20308;-75
2022/01/10 08:05:00;;;;;;;;;;;;;;;;;;4984039;28;20365;-75
2022/01/10 08:07:27;;;;;;;;;;;;;;;;;;4989046;28;20008;-75
2022/01/10 08:09:54;;;;;;;;;;;;;;;;;;4992727;28;19926;-75
2022/01/10 08:12:21;;;;;;;;;;;;;;;;;;4987245;28;19981;-75
2022/01/10 08:14:49;;;;;;;;;;;;;;;;;;4982318;28;19926;-75
2022/01/10 08:17:16;;;;;;;;;;;;;;;;;;4983559;28;19933;-75
2022/01/10 08:19:43;;;;;;;;;;;;;;;;;;4983534;28;19925;-76
2022/01/10 08:22:09;;;;;;;;;;;;;;;;;;4984287;28;20032;-75
2022/01/10 08:24:36;;;;;;;;;;;;;;;;;;4988783;28;19933;-75
2022/01/10 08:27:03;;;;;;;;;;;;;;;;;;4992918;28;19932;-74
2022/01/10 08:29:30;;;;;;;;;;;;;;;;;;4990016;28;19932;-75
2022/01/10 08:31:57;;;;;;;;;;;;;;;;;;4992492;28;19976;-74
2022/01/10 08:34:25;;;;;;;;;;;;;;;;;;4991651;28;19949;-74
2022/01/10 08:36:52;;;;;;;;;;;;;;;;;;4998290;28;19925;-74
2022/01/10 08:39:18;;;;;;;;;;;;;;;;;;4997833;28;19998;-73
2022/01/10 08:41:45;;;;;;;;;;;;;;;;;;4988258;28;19957;-74
2022/01/10 08:44:14;;;;;;;;;;;;;;;;;;4985169;28;19929;-74
2022/01/10 08:46:41;;;;;;;;;;;;;;;;;;4990277;28;19930;-74
2022/01/10 08:49:08;;;;;;;;;;;;;;;;;;4991171;28;19933;-74
2022/01/10 08:51:35;;;;;;;;;;;;;;;;;;4981522;28;19948;-74
2022/01/10 08:54:02;;;;;;;;;;;;;;;;;;4987706;28;20476;-73
2022/01/10 08:56:28;;;;;;;;;;;;;;;;;;4982561;28;19926;-74
2022/01/10 08:58:55;;;;;;;;;;;;;;;;;;4985384;28;19926;-75
2022/01/10 09:01:22;;;;;;;;;;;;;;;;;;4994476;28;19934;-74
2022/01/10 09:03:49;;;;;;;;;;;;;;;;;;4993565;28;20029;-76
2022/01/10 09:06:16;;;;;;;;;;;;;;;;;;4985720;28;19948;-73
2022/01/10 09:08:43;;;;;;;;;;;;;;;;;;5001704;28;19972;-74
2022/01/10 09:11:10;;;;;;;;;;;;;;;;;;4978818;28;19970;-73
2022/01/10 09:13:37;;;;;;;;;;;;;;;;;;4971859;28;19933;-73
2022/01/10 09:16:06;;;;;;;;;;;;;;;;;;4986047;28;19926;-75
2022/01/10 09:18:33;;;;;;;;;;;;;;;;;;4984666;28;19930;-75
2022/01/10 09:21:00;;;;;;;;;;;;;;;;;;4988862;28;19925;-74
2022/01/10 09:23:27;;;;;;;;;;;;;;;;;;4983412;28;19938;-74
2022/01/10 09:25:54;;;;;;;;;;;;;;;;;;4993789;28;19934;-74
2022/01/10 09:28:21;;;;;;;;;;;;;;;;;;4989897;28;19926;-74
2022/01/10 09:30:48;;;;;;;;;;;;;;;;;;4985825;28;20024;-74
2022/01/10 09:33:15;;;;;;;;;;;;;;;;;;4986048;28;19934;-74
2022/01/10 09:35:43;;;;;;;;;;;;;;;;;;4989315;28;19976;-74
2022/01/10 09:38:09;;;;;;;;;;;;;;;;;;4997954;28;20282;-74
2022/01/10 09:40:36;;;;;;;;;;;;;;;;;;4993406;28;19945;-77
2022/01/10 09:43:03;;;;;;;;;;;;;;;;;;4989622;28;19933;-76
2022/01/10 09:45:30;;;;;;;;;;;;;;;;;;4984888;28;19926;-76
2022/01/10 09:47:57;;;;;;;;;;;;;;;;;;4993045;28;19988;-77
2022/01/10 09:50:24;;;;;;;;;;;;;;;;;;4989173;28;19972;-76
2022/01/10 09:52:51;;;;;;;;;;;;;;;;;;4982966;28;19932;-75
2022/01/10 09:55:18;;;;;;;;;;;;;;;;;;4991663;28;20140;-76
2022/01/10 09:57:45;;;;;;;;;;;;;;;;;;4989037;28;19934;-76
2022/01/10 10:00:12;;;;;;;;;;;;;;;;;;4992698;28;20016;-76
2022/01/10 10:02:40;;;;;;;;;;;;;;;;;;4996956;28;19949;-76
2022/01/10 10:05:07;;;;;;;;;;;;;;;;;;4995529;28;19969;-75
2022/01/10 10:07:35;;;;;;;;;;;;;;;;;;4994442;28;19925;-76
2022/01/10 10:10:03;;;;;;;;;;;;;;;;;;4994948;28;19926;-76
2022/01/10 10:12:30;;;;;;;;;;;;;;;;;;4998724;28;20296;-76
2022/01/10 10:14:57;;;;;;;;;;;;;;;;;;5000525;28;20403;-76
2022/01/10 10:17:24;;;;;;;;;;;;;;;;;;4994925;28;20464;-76
2022/01/10 10:19:51;;;;;;;;;;;;;;;;;;4996513;28;20609;-75
2022/01/10 10:22:18;;;;;;;;;;;;;;;;;;4996109;28;19933;-75
2022/01/10 10:24:45;;;;;;;;;;;;;;;;;;4996738;28;19926;-76
2022/01/10 10:27:12;;;;;;;;;;;;;;;;;;4997995;28;20411;-76
2022/01/10 10:29:39;;;;;;;;;;;;;;;;;;4992882;28;19955;-76
2022/01/10 10:32:05;;;;;;;;;;;;;;;;;;4998941;28;19932;-76
2022/01/10 10:34:33;;;;;;;;;;;;;;;;;;4999196;28;20345;-75
2022/01/10 10:37:00;;;;;;;;;;;;;;;;;;4981018;28;19997;-76
2022/01/10 10:39:27;;;;;;;;;;;;;;;;;;4996106;28;19933;-76
2022/01/10 10:41:54;;;;;;;;;;;;;;;;;;4997684;28;19977;-76
2022/01/10 10:44:21;;;;;;;;;;;;;;;;;;4996140;28;19926;-76
2022/01/10 10:46:48;;;;;;;;;;;;;;;;;;4993719;28;19927;-76
2022/01/10 10:49:18;;;;;;;;;;;;;;;;;;4988669;28;19926;-76
2022/01/10 10:51:46;;;;;;;;;;;;;;;;;;4988944;28;20317;-75
2022/01/10 10:54:13;;;;;;;;;;;;;;;;;;4991717;28;19926;-76
2022/01/10 10:56:40;;;;;;;;;;;;;;;;;;4994298;28;19925;-77
2022/01/10 10:59:07;;;;;;;;;;;;;;;;;;4986136;28;20017;-77
2022/01/10 11:01:36;;;;;;;;;;;;;;;;;;4986942;28;19971;-77
2022/01/10 11:04:03;;;;;;;;;;;;;;;;;;4989276;28;19948;-77
2022/01/10 11:06:30;;;;;;;;;;;;;;;;;;4990895;28;19952;-77
2022/01/10 11:08:57;;;;;;;;;;;;;;;;;;4993053;28;20033;-77
2022/01/10 11:11:24;;;;;;;;;;;;;;;;;;4986445;28;20408;-77
2022/01/10 11:13:51;;;;;;;;;;;;;;;;;;4982084;28;19933;-77
2022/01/10 11:16:18;;;;;;;;;;;;;;;;;;4986678;28;19925;-77
2022/01/10 11:18:46;;;;;;;;;;;;;;;;;;4991754;28;20017;-77
2022/01/10 11:21:14;;;;;;;;;;;;;;;;;;4985210;28;19995;-77
2022/01/10 11:23:41;;;;;;;;;;;;;;;;;;4996175;28;19926;-77
2022/01/10 11:26:08;;;;;;;;;;;;;;;;;;4983243;28;19926;-76
2022/01/10 11:28:35;;;;;;;;;;;;;;;;;;4986136;28;19929;-76
2022/01/10 11:31:02;;;;;;;;;;;;;;;;;;4988312;28;19925;-76
2022/01/10 11:33:32;;;;;;;;;;;;;;;;;;4991353;28;19932;-76
2022/01/10 11:35:59;;;;;;;;;;;;;;;;;;4992620;28;19926;-75
2022/01/10 11:38:26;;;;;;;;;;;;;;;;;;4980586;28;20867;-75
2022/01/10 11:40:53;;;;;;;;;;;;;;;;;;4986801;28;19934;-76
2022/01/10 11:43:20;;;;;;;;;;;;;;;;;;4984274;28;19926;-76
2022/01/10 11:45:49;;;;;;;;;;;;;;;;;;4985531;28;20020;-77
2022/01/10 11:48:16;;;;;;;;;;;;;;;;;;4985835;28;20278;-76
2022/01/10 11:50:43;;;;;;;;;;;;;;;;;;4986985;28;19926;-76
2022/01/10 11:53:10;;;;;;;;;;;;;;;;;;4985561;28;20057;-76
2022/01/10 11:55:37;;;;;;;;;;;;;;;;;;4985218;28;19946;-77
2022/01/10 11:58:04;;;;;;;;;;;;;;;;;;4981452;28;19930;-76
2022/01/10 12:00:31;;;;;;;;;;;;;;;;;;4990735;28;19925;-76
2022/01/10 12:02:58;;;;;;;;;;;;;;;;;;4990163;28;19929;-76
2022/01/10 12:05:25;;;;;;;;;;;;;;;;;;4992295;28;20012;-76
2022/01/10 12:07:52;;;;;;;;;;;;;;;;;;4987807;28;19926;-76
2022/01/10 12:10:19;;;;;;;;;;;;;;;;;;4992733;28;19933;-77
2022/01/10 12:12:50;;;;;;;;;;;;;;;;;;4985987;28;19926;-77
2022/01/10 12:15:17;;;;;;;;;;;;;;;;;;4986678;28;20307;-76
2022/01/10 12:17:44;;;;;;;;;;;;;;;;;;4979283;28;20603;-76
2022/01/10 12:20:11;;;;;;;;;;;;;;;;;;4992257;28;20012;-76
2022/01/10 12:22:39;;;;;;;;;;;;;;;;;;4990104;28;19925;-76
2022/01/10 12:25:06;;;;;;;;;;;;;;;;;;4981847;28;19933;-76
2022/01/10 12:27:34;;;;;;;;;;;;;;;;;;4984549;28;19926;-76
2022/01/10 12:30:01;;;;;;;;;;;;;;;;;;4977056;28;19941;-75
2022/01/10 12:32:28;;;;;;;;;;;;;;;;;;4978901;28;19926;-75
2022/01/10 12:34:55;;;;;;;;;;;;;;;;;;4993239;28;19932;-76
2022/01/10 12:37:21;;;;;;;;;;;;;;;;;;4992322;28;19969;-75
2022/01/10 12:39:48;;;;;;;;;;;;;;;;;;4983989;28;19992;-76
2022/01/10 12:42:15;;;;;;;;;;;;;;;;;;4988350;28;19926;-75
2022/01/10 12:44:42;;;;;;;;;;;;;;;;;;4989205;28;20297;-75
2022/01/10 12:47:09;;;;;;;;;;;;;;;;;;4982190;28;20348;-76
2022/01/10 12:49:36;;;;;;;;;;;;;;;;;;4979693;28;19932;-76
2022/01/10 12:52:03;;;;;;;;;;;;;;;;;;4990991;28;20385;-76
2022/01/10 12:54:30;;;;;;;;;;;;;;;;;;4983861;28;19981;-76
2022/01/10 12:56:57;;;;;;;;;;;;;;;;;;4984544;28;20016;-75
2022/01/10 12:59:24;;;;;;;;;;;;;;;;;;4991351;28;19933;-75
2022/01/10 13:01:52;;;;;;;;;;;;;;;;;;4989137;28;19948;-75
2022/01/10 13:04:19;;;;;;;;;;;;;;;;;;4982113;28;19926;-74
2022/01/10 13:06:46;;;;;;;;;;;;;;;;;;4985124;28;20049;-75
2022/01/10 13:09:13;;;;;;;;;;;;;;;;;;4986320;28;20353;-75
2022/01/10 13:11:43;;;;;;;;;;;;;;;;;;4991163;28;20016;-76
2022/01/10 13:14:10;;;;;;;;;;;;;;;;;;4982781;28;19926;-76
2022/01/10 13:16:37;;;;;;;;;;;;;;;;;;4988886;28;19980;-75
2022/01/10 13:21:55;;;;;;;;;;;;;;;;;;4991545;28;20483;-75
2022/01/10 13:24:22;;;;;;;;;;;;;;;;;;4980789;28;19926;-75
2022/01/10 13:26:49;;;;;;;;;;;;;;;;;;4990683;28;19933;-75
2022/01/10 13:29:16;;;;;;;;;;;;;;;;;;4987788;28;19926;-74
2022/01/10 13:31:43;;;;;;;;;;;;;;;;;;4985003;28;19926;-77
2022/01/10 13:34:10;;;;;;;;;;;;;;;;;;4983313;28;20020;-75
2022/01/10 13:36:38;;;;;;;;;;;;;;;;;;4983554;28;19930;-76
2022/01/10 13:39:05;;;;;;;;;;;;;;;;;;4974395;28;19926;-76
2022/01/10 13:41:32;;;;;;;;;;;;;;;;;;4987514;28;20369;-74
2022/01/10 13:43:58;;;;;;;;;;;;;;;;;;4981127;28;20179;-75
2022/01/10 13:46:26;;;;;;;;;;;;;;;;;;4975457;28;19926;-74
2022/01/10 13:48:53;;;;;;;;;;;;;;;;;;4978864;28;20009;-75
2022/01/10 13:51:20;;;;;;;;;;;;;;;;;;4985126;28;19935;-76
2022/01/10 13:53:48;;;;;;;;;;;;;;;;;;4985894;28;19926;-75
2022/01/10 13:56:15;;;;;;;;;;;;;;;;;;4986295;28;19926;-76
2022/01/10 13:58:43;;;;;;;;;;;;;;;;;;4983828;28;19929;-75
2022/01/10 14:01:10;;;;;;;;;;;;;;;;;;4993797;28;19980;-75
2022/01/10 14:03:36;;;;;;;;;;;;;;;;;;4982399;28;19932;-75
2022/01/10 14:06:03;;;;;;;;;;;;;;;;;;5001167;28;19925;-76
2022/01/10 14:08:30;;;;;;;;;;;;;;;;;;4986838;28;19930;-75
2022/01/10 14:10:57;;;;;;;;;;;;;;;;;;4992919;28;19934;-76
2022/01/10 14:13:24;;;;;;;;;;;;;;;;;;4992435;28;20000;-75
2022/01/10 14:15:51;;;;;;;;;;;;;;;;;;4989054;28;19968;-76
2022/01/10 14:18:18;;;;;;;;;;;;;;;;;;4989915;28;21592;-77
2022/01/10 14:20:45;;;;;;;;;;;;;;;;;;4985289;28;19932;-76
2022/01/10 14:23:12;;;;;;;;;;;;;;;;;;4986963;28;19926;-76
2022/01/10 14:25:39;;;;;;;;;;;;;;;;;;4981311;28;19930;-76
2022/01/10 14:28:06;;;;;;;;;;;;;;;;;;4986109;28;19933;-75
2022/01/10 14:30:33;;;;;;;;;;;;;;;;;;4987524;28;19932;-76
2022/01/10 14:33:01;;;;;;;;;;;;;;;;;;4984762;28;20005;-76
2022/01/10 14:35:28;;;;;;;;;;;;;;;;;;4986685;28;19965;-76
2022/01/10 14:37:55;;;;;;;;;;;;;;;;;;4985534;28;20029;-74
2022/01/10 14:40:22;;;;;;;;;;;;;;;;;;4990926;28;19932;-74
2022/01/10 14:42:50;;;;;;;;;;;;;;;;;;4984481;28;19944;-75
2022/01/10 14:45:18;;;;;;;;;;;;;;;;;;4987648;28;19934;-75
2022/01/10 14:47:45;;;;;;;;;;;;;;;;;;4990817;28;19988;-75
2022/01/10 14:50:14;;;;;;;;;;;;;;;;;;4989484;28;19946;-75
2022/01/10 14:52:41;;;;;;;;;;;;;;;;;;4981797;28;19988;-74
2022/01/10 14:55:08;;;;;;;;;;;;;;;;;;4976558;28;20448;-74
2022/01/10 14:57:35;;;;;;;;;;;;;;;;;;4981158;28;19932;-74
2022/01/10 15:00:02;;;;;;;;;;;;;;;;;;4986683;28;19934;-75
2022/01/10 15:02:29;;;;;;;;;;;;;;;;;;4982248;28;19932;-74
2022/01/10 15:04:56;;;;;;;;;;;;;;;;;;4988771;28;20278;-75
2022/01/10 15:07:23;;;;;;;;;;;;;;;;;;4987876;28;19933;-75
2022/01/10 15:09:50;;;;;;;;;;;;;;;;;;4988525;28;19930;-76
2022/01/10 15:12:17;;;;;;;;;;;;;;;;;;4982438;28;19996;-75
2022/01/10 15:14:44;;;;;;;;;;;;;;;;;;4986270;28;19926;-75
2022/01/10 15:17:12;;;;;;;;;;;;;;;;;;4982350;28;20460;-76
2022/01/10 15:19:39;;;;;;;;;;;;;;;;;;4983822;28;19929;-76
2022/01/10 15:22:06;;;;;;;;;;;;;;;;;;4986127;28;19944;-76
2022/01/10 15:24:33;;;;;;;;;;;;;;;;;;4983597;28;19926;-76
2022/01/10 15:27:01;;;;;;;;;;;;;;;;;;4987802;28;19976;-76
2022/01/10 15:29:28;;;;;;;;;;;;;;;;;;4984145;28;19926;-76
2022/01/10 15:31:55;;;;;;;;;;;;;;;;;;4979462;28;19933;-76
2022/01/10 15:34:22;;;;;;;;;;;;;;;;;;4980967;28;19925;-76
2022/01/10 15:36:49;;;;;;;;;;;;;;;;;;4984143;28;20814;-76
2022/01/10 15:39:16;;;;;;;;;;;;;;;;;;4977489;28;19934;-76
2022/01/10 15:41:43;;;;;;;;;;;;;;;;;;4980044;28;20588;-76
2022/01/10 15:44:11;;;;;;;;;;;;;;;;;;4987990;28;19933;-75
2022/01/10 15:46:39;;;;;;;;;;;;;;;;;;4983097;28;20459;-78
2022/01/10 15:49:06;;;;;;;;;;;;;;;;;;4980284;28;19976;-75
2022/01/10 15:51:33;;;;;;;;;;;;;;;;;;4983945;28;19926;-75
2022/01/10 15:54:02;;;;;;;;;;;;;;;;;;4978447;28;19938;-79
2022/01/10 15:56:29;;;;;;;;;;;;;;;;;;4986727;28;19926;-75
2022/01/10 15:58:56;;;;;;;;;;;;;;;;;;4986228;28;19934;-76
2022/01/10 16:01:23;;;;;;;;;;;;;;;;;;4980128;28;19925;-75
2022/01/10 16:03:50;;;;;;;;;;;;;;;;;;4981560;28;19926;-76
2022/01/10 16:06:17;;;;;;;;;;;;;;;;;;4988961;28;20404;-76
2022/01/10 16:08:44;;;;;;;;;;;;;;;;;;4982588;28;19996;-75
2022/01/10 16:11:12;;;;;;;;;;;;;;;;;;4985538;28;19925;-76
2022/01/10 16:13:39;;;;;;;;;;;;;;;;;;4986572;28;19925;-76
2022/01/10 16:16:06;;;;;;;;;;;;;;;;;;4978617;28;19930;-77
2022/01/10 16:18:33;;;;;;;;;;;;;;;;;;4980444;28;20558;-76
2022/01/10 16:21:00;;;;;;;;;;;;;;;;;;4979553;28;19926;-73
2022/01/10 16:23:26;;;;;;;;;;;;;;;;;;4985131;28;19925;-73
2022/01/10 16:25:53;;;;;;;;;;;;;;;;;;4976949;28;20389;-73
2022/01/10 16:28:20;;;;;;;;;;;;;;;;;;4984092;28;19933;-74
2022/01/10 16:30:47;;;;;;;;;;;;;;;;;;4979243;28;19940;-72
2022/01/10 16:33:14;;;;;;;;;;;;;;;;;;4986541;28;20293;-72
2022/01/10 16:35:41;;;;;;;;;;;;;;;;;;4976524;28;19926;-73
2022/01/10 16:38:08;;;;;;;;;;;;;;;;;;4981227;28;19933;-75